createdAt,value
2023-01-08T00:01:49.284Z,9.23
2023-01-08T00:04:21.864Z,8.55
2023-01-08T00:06:52.156Z,8.80
2023-01-08T00:09:22.426Z,9.10
2023-01-08T00:11:52.660Z,9.02
2023-01-08T00:14:23.026Z,8.75
2023-01-08T00:16:53.317Z,9.68
2023-01-08T00:19:25.944Z,8.43
2023-01-08T00:21:56.207Z,8.32
2023-01-08T00:24:26.419Z,9.10
2023-01-08T00:26:56.637Z,8.00
2023-01-08T00:29:27.274Z,9.38
2023-01-08T00:31:57.604Z,9.30
2023-01-08T00:34:30.129Z,10.15
2023-01-08T00:37:00.360Z,9.73
2023-01-08T00:39:30.648Z,9.88
2023-01-08T00:42:00.852Z,8.77
2023-01-08T00:44:31.100Z,9.70
2023-01-08T00:47:01.338Z,10.17
2023-01-08T00:49:33.872Z,9.93
2023-01-08T00:52:05.237Z,9.98
2023-01-08T00:54:37.185Z,9.23
2023-01-08T00:57:07.442Z,9.57
2023-01-08T00:59:37.765Z,8.87
2023-01-08T01:02:08.081Z,9.10
2023-01-08T01:04:40.714Z,9.10
2023-01-08T01:07:10.945Z,10.23
2023-01-08T01:09:41.229Z,9.95
2023-01-08T01:12:11.770Z,9.07
2023-01-08T01:14:42.243Z,9.83
2023-01-08T01:17:14.056Z,9.97
2023-01-08T01:19:46.925Z,9.35
2023-01-08T01:22:17.157Z,9.97
2023-01-08T01:24:47.501Z,10.40
2023-01-08T01:27:17.715Z,9.45
2023-01-08T01:29:47.973Z,10.68
2023-01-08T01:32:18.366Z,10.00
2023-01-08T01:34:50.890Z,9.43
2023-01-08T01:37:21.094Z,9.40
2023-01-08T01:39:51.447Z,11.07
2023-01-08T01:42:34.894Z,10.43
2023-01-08T01:45:05.283Z,10.93
2023-01-08T01:47:39.363Z,10.60
2023-01-08T01:50:15.640Z,11.60
2023-01-08T01:52:49.099Z,10.57
2023-01-08T01:55:20.101Z,10.63
2023-01-08T01:57:57.797Z,11.00
2023-01-08T02:00:28.905Z,10.37
2023-01-08T02:02:59.343Z,10.93
2023-01-08T02:05:37.776Z,11.30
2023-01-08T02:08:13.943Z,10.93
2023-01-08T02:10:51.086Z,9.43
2023-01-08T02:13:25.935Z,10.93
2023-01-08T02:16:00.945Z,10.80
2023-01-08T02:18:38.737Z,11.47
2023-01-08T02:21:15.995Z,12.40
2023-01-08T02:23:51.069Z,10.17
2023-01-08T02:26:29.200Z,11.25
2023-01-08T02:29:04.033Z,13.20
2023-01-08T02:31:35.921Z,12.50
2023-01-08T02:34:06.165Z,11.53
2023-01-08T02:36:40.442Z,11.93
2023-01-08T02:39:27.284Z,10.93
2023-01-08T02:42:14.231Z,10.13
2023-01-08T02:44:55.135Z,13.07
2023-01-08T02:47:32.249Z,11.23
2023-01-08T02:50:13.090Z,10.70
2023-01-08T02:52:50.443Z,11.30
2023-01-08T02:55:21.101Z,10.25
2023-01-08T02:57:54.781Z,11.43
2023-01-08T03:00:25.691Z,10.40
2023-01-08T03:03:04.342Z,9.90
2023-01-08T03:05:34.879Z,11.53
2023-01-08T03:08:05.448Z,10.75
2023-01-08T03:10:36.342Z,10.43
2023-01-08T03:13:13.416Z,10.93
2023-01-08T03:15:49.060Z,9.82
2023-01-08T03:18:24.027Z,10.23
2023-01-08T03:20:54.493Z,9.48
2023-01-08T03:23:26.046Z,10.18
2023-01-08T03:25:56.441Z,10.40
2023-01-08T03:28:36.105Z,9.45
2023-01-08T03:31:06.773Z,9.00
2023-01-08T03:33:38.800Z,10.93
2023-01-08T03:36:11.091Z,10.85
2023-01-08T03:38:45.047Z,10.73
2023-01-08T03:41:19.963Z,11.43
2023-01-08T03:43:52.857Z,9.93
2023-01-08T03:46:28.301Z,9.37
2023-01-08T03:48:59.514Z,10.50
2023-01-08T03:51:30.005Z,10.13
2023-01-08T03:54:02.219Z,10.37
2023-01-08T03:56:32.589Z,10.03
2023-01-08T03:59:05.131Z,10.90
2023-01-08T04:01:35.486Z,10.75
2023-01-08T04:04:05.951Z,11.65
2023-01-08T04:06:36.443Z,10.20
2023-01-08T04:09:07.006Z,10.23
2023-01-08T04:11:37.243Z,10.77
2023-01-08T04:14:12.357Z,10.45
2023-01-08T04:16:42.599Z,9.80
2023-01-08T04:19:13.749Z,9.10
2023-01-08T04:21:44.040Z,9.43
2023-01-08T04:24:14.630Z,17.03
2023-01-08T04:26:44.918Z,10.07
2023-01-08T04:29:17.614Z,8.23
2023-01-08T04:31:47.864Z,9.60
2023-01-08T04:34:18.097Z,9.90
2023-01-08T04:36:48.325Z,10.10
2023-01-08T04:39:18.609Z,11.40
2023-01-08T04:41:48.889Z,9.40
2023-01-08T04:44:21.486Z,10.00
2023-01-08T04:46:51.752Z,9.85
2023-01-08T04:49:22.013Z,10.75
2023-01-08T04:51:52.241Z,8.82
2023-01-08T04:54:22.465Z,13.15
2023-01-08T04:56:53.511Z,12.00
2023-01-08T04:59:26.005Z,12.18
2023-01-08T05:01:56.866Z,11.25
2023-01-08T05:04:27.175Z,10.57
2023-01-08T05:06:57.393Z,10.27
2023-01-08T05:09:27.652Z,10.68
2023-01-08T05:11:57.904Z,11.47
2023-01-08T05:14:30.444Z,13.10
2023-01-08T05:17:00.626Z,10.27
2023-01-08T05:19:30.860Z,13.05
2023-01-08T05:22:01.097Z,11.30
2023-01-08T05:24:31.323Z,11.43
2023-01-08T05:27:01.640Z,10.40
2023-01-08T05:29:34.480Z,10.98
2023-01-08T05:32:04.715Z,11.85
2023-01-08T05:34:34.996Z,9.17
2023-01-08T05:37:05.229Z,9.45
2023-01-08T05:39:35.440Z,8.52
2023-01-08T05:42:05.702Z,9.23
2023-01-08T05:44:38.253Z,9.23
2023-01-08T05:47:08.591Z,10.35
2023-01-08T05:49:38.808Z,9.02
2023-01-08T05:52:09.020Z,10.57
2023-01-08T05:54:39.249Z,10.43
2023-01-08T05:57:09.550Z,9.37
2023-01-08T05:59:42.381Z,11.13
2023-01-08T06:02:12.898Z,9.87
2023-01-08T06:04:43.133Z,11.10
2023-01-08T06:07:13.408Z,11.70
2023-01-08T06:09:43.621Z,10.85
2023-01-08T06:12:13.893Z,9.23
2023-01-08T06:14:46.692Z,8.90
2023-01-08T06:17:17.690Z,10.45
2023-01-08T06:19:48.363Z,9.50
2023-01-08T06:22:18.649Z,10.17
2023-01-08T06:24:48.916Z,9.48
2023-01-08T06:27:19.151Z,9.77
2023-01-08T06:29:51.996Z,10.57
2023-01-08T06:32:22.208Z,11.30
2023-01-08T06:34:52.412Z,11.10
2023-01-08T06:37:22.681Z,11.03
2023-01-08T06:39:53.026Z,9.80
2023-01-08T06:42:23.242Z,9.87
2023-01-08T06:44:55.785Z,10.50
2023-01-08T06:47:25.986Z,8.65
2023-01-08T06:49:56.249Z,10.07
2023-01-08T06:52:26.494Z,9.07
2023-01-08T06:54:56.748Z,9.55
2023-01-08T06:57:27.175Z,9.90
2023-01-08T06:59:59.758Z,9.02
2023-01-08T07:02:30.160Z,8.70
2023-01-08T07:05:00.614Z,9.13
2023-01-08T07:07:30.824Z,9.88
2023-01-08T07:10:01.055Z,9.73
2023-01-08T07:12:31.370Z,9.32
2023-01-08T07:15:04.219Z,8.32
2023-01-08T07:17:35.524Z,8.47
2023-01-08T07:20:05.751Z,10.30
2023-01-08T07:22:36.036Z,12.13
2023-01-08T07:25:07.257Z,8.73
2023-01-08T07:27:37.544Z,9.45
2023-01-08T07:30:28.192Z,7.97
2023-01-08T07:33:02.419Z,9.02
2023-01-08T07:35:32.703Z,9.20
2023-01-08T07:38:03.718Z,9.10
2023-01-08T07:40:34.527Z,7.68
2023-01-08T07:43:06.752Z,10.00
2023-01-08T07:45:39.277Z,10.30
2023-01-08T07:48:10.591Z,12.80
2023-01-08T07:50:41.504Z,12.13
2023-01-08T07:53:12.197Z,15.45
2023-01-08T07:55:42.762Z,17.30
2023-01-08T07:58:13.975Z,17.27
2023-01-08T08:00:46.688Z,13.35
2023-01-08T08:03:17.029Z,9.38
2023-01-08T08:05:47.276Z,9.20
2023-01-08T08:08:17.550Z,9.15
2023-01-08T08:10:48.216Z,8.70
2023-01-08T08:13:18.454Z,8.45
2023-01-08T08:15:51.104Z,8.32
2023-01-08T08:18:21.481Z,8.48
2023-01-08T08:20:52.211Z,8.40
2023-01-08T08:23:22.461Z,7.40
2023-01-08T08:25:52.714Z,7.30
2023-01-08T08:28:22.965Z,9.23
2023-01-08T08:30:55.558Z,7.53
2023-01-08T08:33:25.808Z,7.53
2023-01-08T08:35:55.994Z,7.80
2023-01-08T08:38:26.493Z,7.53
2023-01-08T08:40:56.782Z,7.78
2023-01-08T08:43:26.987Z,7.13
2023-01-08T08:46:00.883Z,7.78
2023-01-08T08:48:31.178Z,7.13
2023-01-08T08:51:01.398Z,7.82
2023-01-08T08:53:31.692Z,7.28
2023-01-08T08:56:02.073Z,7.20
2023-01-08T08:58:32.295Z,6.55
2023-01-08T09:01:08.380Z,7.15
2023-01-08T09:03:38.851Z,6.05
2023-01-08T09:06:09.936Z,8.35
2023-01-08T09:08:40.131Z,7.57
2023-01-08T09:11:10.745Z,6.72
2023-01-08T09:13:42.020Z,6.75
2023-01-08T09:16:14.602Z,6.72
2023-01-08T09:18:45.036Z,6.93
2023-01-08T09:21:15.272Z,7.10
2023-01-08T09:23:45.652Z,6.55
2023-01-08T09:26:16.712Z,7.13
2023-01-08T09:28:46.944Z,5.72
2023-01-08T09:31:19.644Z,5.50
2023-01-08T09:33:51.028Z,6.55
2023-01-08T09:36:21.495Z,5.57
2023-01-08T09:38:51.733Z,5.35
2023-01-08T09:41:27.918Z,5.50
2023-01-08T09:43:59.826Z,5.10
2023-01-08T09:46:33.607Z,5.07
2023-01-08T09:49:07.687Z,5.40
2023-01-08T09:51:39.975Z,4.57
2023-01-08T09:54:10.354Z,4.55
2023-01-08T09:56:41.053Z,4.85
2023-01-08T09:59:16.624Z,4.10
2023-01-08T10:01:50.466Z,4.47
2023-01-08T10:04:23.576Z,4.35
2023-01-08T10:06:56.961Z,3.70
2023-01-08T10:09:29.918Z,3.22
2023-01-08T10:12:03.967Z,3.45
2023-01-08T10:14:37.713Z,3.50
2023-01-08T10:17:20.205Z,3.03
2023-01-08T10:19:50.446Z,3.28
2023-01-08T10:22:23.339Z,2.92
2023-01-08T10:24:53.631Z,2.92
2023-01-08T10:27:25.741Z,3.58
2023-01-08T10:29:56.025Z,4.00
2023-01-08T10:32:34.508Z,3.63
2023-01-08T10:35:08.481Z,3.42
2023-01-08T10:37:42.603Z,3.70
2023-01-08T10:40:25.803Z,5.43
2023-01-08T10:42:57.812Z,5.90
2023-01-08T10:45:30.414Z,5.55
2023-01-08T10:48:08.447Z,3.92
2023-01-08T10:50:38.956Z,4.80
2023-01-08T10:53:24.645Z,3.85
2023-01-08T10:56:00.854Z,4.55
2023-01-08T10:58:31.684Z,4.60
2023-01-08T11:01:13.876Z,4.63
2023-01-08T11:03:47.094Z,4.22
2023-01-08T11:06:23.648Z,4.22
2023-01-08T11:08:55.740Z,4.00
2023-01-08T11:11:26.476Z,4.03
2023-01-08T11:14:02.597Z,4.32
2023-01-08T11:16:38.021Z,4.60
2023-01-08T11:19:20.029Z,4.35
2023-01-08T11:21:58.871Z,4.43
2023-01-08T11:24:34.614Z,3.95
2023-01-08T11:27:09.334Z,4.22
2023-01-08T11:29:45.999Z,4.90
2023-01-08T11:32:33.100Z,4.80
2023-01-08T11:35:12.722Z,4.32
2023-01-08T11:37:45.262Z,4.53
2023-01-08T11:40:19.034Z,5.07
2023-01-08T11:43:10.675Z,4.85
2023-01-08T11:45:50.081Z,6.78
2023-01-08T11:48:31.942Z,6.05
2023-01-08T11:51:28.171Z,5.60
2023-01-08T11:54:06.508Z,5.30
2023-01-08T11:56:51.670Z,4.57
2023-01-08T11:59:29.309Z,4.80
2023-01-08T12:02:07.728Z,4.72
2023-01-08T12:07:41.785Z,4.93
2023-01-08T12:10:17.952Z,5.20
2023-01-08T12:12:58.888Z,5.78
2023-01-08T12:15:38.850Z,4.60
2023-01-08T12:18:25.484Z,6.68
2023-01-08T12:21:04.292Z,5.72
2023-01-08T12:23:42.044Z,5.82
2023-01-08T12:26:14.903Z,6.88
2023-01-08T12:28:59.986Z,6.88
2023-01-08T12:31:48.707Z,6.85
2023-01-08T12:34:34.275Z,6.00
2023-01-08T12:37:09.281Z,6.57
2023-01-08T12:39:46.010Z,9.68
2023-01-08T12:42:17.958Z,10.10
2023-01-08T12:44:49.156Z,7.97
2023-01-08T12:47:22.291Z,7.18
2023-01-08T12:49:56.796Z,7.00
2023-01-08T12:52:36.734Z,6.90
2023-01-08T12:55:20.462Z,10.27
2023-01-08T12:57:52.501Z,8.70
2023-01-08T13:00:26.049Z,11.95
2023-01-08T13:03:00.556Z,10.63
2023-01-08T13:05:35.189Z,7.70
2023-01-08T13:08:06.750Z,6.70
2023-01-08T13:10:41.523Z,7.10
2023-01-08T13:13:26.888Z,14.00
2023-01-08T13:15:57.175Z,11.43
2023-01-08T13:18:27.421Z,9.30
2023-01-08T13:21:01.366Z,7.65
2023-01-08T13:23:35.044Z,6.72
2023-01-08T13:26:09.288Z,6.43
2023-01-08T13:28:45.293Z,6.70
2023-01-08T13:31:29.924Z,6.10
2023-01-08T13:34:00.198Z,7.20
2023-01-08T13:36:32.133Z,6.60
2023-01-08T13:39:03.110Z,6.57
2023-01-08T13:41:37.305Z,6.65
2023-01-08T13:44:08.339Z,7.00
2023-01-08T13:46:41.079Z,7.50
2023-01-08T13:49:12.452Z,7.78
2023-01-08T13:51:44.464Z,6.80
2023-01-08T13:54:32.554Z,6.65
2023-01-08T13:57:13.733Z,7.43
2023-01-08T13:59:46.175Z,6.22
2023-01-08T14:02:29.905Z,6.22
2023-01-08T14:05:00.964Z,6.07
2023-01-08T14:07:31.256Z,6.28
2023-01-08T14:10:10.755Z,6.10
2023-01-08T14:12:43.741Z,6.20
2023-01-08T14:15:22.868Z,6.57
2023-01-08T14:17:53.737Z,6.25
2023-01-08T14:20:33.005Z,6.32
2023-01-08T14:23:04.595Z,6.88
2023-01-08T14:25:35.254Z,6.30
2023-01-08T14:28:08.860Z,5.75
2023-01-08T14:30:39.116Z,6.50
2023-01-08T14:33:15.064Z,5.40
2023-01-08T14:35:46.339Z,4.88
2023-01-08T14:38:17.359Z,5.40
2023-01-08T14:40:51.298Z,5.40
2023-01-08T14:43:24.372Z,4.72
2023-01-08T14:45:57.043Z,4.60
2023-01-08T14:48:29.020Z,4.80
2023-01-08T14:51:05.208Z,4.32
2023-01-08T14:53:36.732Z,5.22
2023-01-08T14:56:08.719Z,5.13
2023-01-08T14:58:44.274Z,5.68
2023-01-08T15:01:18.317Z,6.35
2023-01-08T15:03:49.805Z,5.90
2023-01-08T15:06:27.705Z,5.25
2023-01-08T15:08:58.563Z,6.00
2023-01-08T15:11:31.561Z,5.72
2023-01-08T15:14:04.469Z,4.78
2023-01-08T15:16:35.633Z,5.63
2023-01-08T15:19:11.382Z,5.15
2023-01-08T15:21:41.982Z,5.32
2023-01-08T15:24:12.266Z,5.18
2023-01-08T15:26:45.427Z,6.43
2023-01-08T15:29:21.644Z,5.35
2023-01-08T15:31:52.417Z,5.25
2023-01-08T15:34:23.480Z,4.97
2023-01-08T15:36:53.673Z,4.95
2023-01-08T15:39:23.966Z,5.20
2023-01-08T15:42:06.605Z,4.68
2023-01-08T15:44:39.485Z,5.20
2023-01-08T15:47:09.738Z,5.28
2023-01-08T15:49:39.930Z,4.78
2023-01-08T15:52:10.157Z,5.32
2023-01-08T15:54:41.200Z,5.68
2023-01-08T15:57:13.321Z,4.38
2023-01-08T15:59:46.194Z,5.43
2023-01-08T16:02:16.636Z,4.70
2023-01-08T16:04:47.233Z,4.88
2023-01-08T16:07:17.654Z,5.50
2023-01-08T16:09:47.951Z,4.80
2023-01-08T16:12:18.454Z,5.20
2023-01-08T16:14:51.282Z,5.65
2023-01-08T16:17:21.567Z,4.93
2023-01-08T16:19:51.826Z,5.18
2023-01-08T16:22:22.050Z,5.38
2023-01-08T16:24:52.319Z,4.97
2023-01-08T16:27:22.581Z,5.78
2023-01-08T16:29:55.480Z,5.20
2023-01-08T16:32:25.754Z,4.75
2023-01-08T16:34:59.169Z,4.83
2023-01-08T16:37:29.413Z,4.57
2023-01-08T16:39:59.647Z,5.53
2023-01-08T16:42:30.014Z,4.82
2023-01-08T16:45:02.937Z,5.95
2023-01-08T16:47:33.213Z,7.15
2023-01-08T16:50:03.489Z,6.47
2023-01-08T16:52:33.744Z,5.90
2023-01-08T16:55:04.029Z,5.53
2023-01-08T16:57:34.267Z,6.70
2023-01-08T17:00:07.451Z,5.53
2023-01-08T17:02:38.138Z,6.47
2023-01-08T17:05:08.893Z,6.13
2023-01-08T17:07:39.091Z,6.15
2023-01-08T17:10:10.070Z,5.65
2023-01-08T17:12:40.286Z,7.53
2023-01-08T17:15:13.783Z,6.18
2023-01-08T17:17:44.051Z,6.82
2023-01-08T17:20:15.136Z,5.60
2023-01-08T17:22:45.396Z,5.80
2023-01-08T17:25:15.649Z,5.68
2023-01-08T17:27:46.032Z,5.47
2023-01-08T17:30:19.192Z,5.18
2023-01-08T17:32:49.478Z,5.60
2023-01-08T17:35:19.937Z,7.15
2023-01-08T17:37:50.202Z,6.32
2023-01-08T17:40:20.453Z,5.88
2023-01-08T17:42:50.741Z,7.13
2023-01-08T17:47:45.163Z,5.63
2023-01-08T17:50:15.536Z,5.75
2023-01-08T17:52:45.497Z,5.63
2023-01-08T17:55:15.717Z,6.40
2023-01-08T17:57:45.640Z,5.93
2023-01-08T18:00:16.945Z,7.22
2023-01-08T18:02:49.783Z,6.07
2023-01-08T18:05:20.146Z,6.32
2023-01-08T18:07:50.454Z,5.88
2023-01-08T18:10:20.993Z,5.93
2023-01-08T18:12:51.300Z,7.10
2023-01-08T18:15:21.671Z,7.03
2023-01-08T18:17:54.504Z,7.32
2023-01-08T18:20:24.671Z,7.85
2023-01-08T18:22:54.709Z,7.63
2023-01-08T18:25:24.986Z,7.07
2023-01-08T18:27:55.299Z,8.15
2023-01-08T18:30:27.016Z,9.43
2023-01-08T18:32:59.541Z,8.15
2023-01-08T18:35:30.544Z,8.68
2023-01-08T18:38:00.792Z,8.38
2023-01-08T18:40:31.051Z,8.43
2023-01-08T18:43:02.146Z,8.13
2023-01-08T18:45:35.393Z,8.65
2023-01-08T18:48:09.504Z,45.33
2023-01-08T18:50:41.430Z,14.30
2023-01-08T18:53:15.709Z,10.95
2023-01-08T18:55:45.956Z,7.88
2023-01-08T18:58:16.226Z,7.45
2023-01-08T19:00:46.528Z,5.68
2023-01-08T19:03:19.378Z,5.20
2023-01-08T19:05:49.643Z,21.48
2023-01-08T19:08:19.936Z,29.13
2023-01-08T19:10:50.365Z,12.75
2023-01-08T19:13:22.056Z,9.25
2023-01-08T19:15:52.317Z,10.18
2023-01-08T19:18:25.172Z,13.15
2023-01-08T19:20:56.207Z,7.13
2023-01-08T19:23:26.506Z,6.55
2023-01-08T19:25:56.771Z,5.80
2023-01-08T19:28:27.043Z,6.95
2023-01-08T19:31:01.138Z,5.78
2023-01-08T19:33:33.973Z,7.78
2023-01-08T19:36:08.590Z,7.82
2023-01-08T19:38:38.960Z,6.53
2023-01-08T19:41:30.547Z,5.78
2023-01-08T19:43:58.433Z,6.43
2023-01-08T19:46:29.034Z,11.05
2023-01-08T19:49:03.794Z,6.53
2023-01-08T19:51:35.615Z,6.15
2023-01-08T19:54:05.906Z,8.73
2023-01-08T19:56:36.164Z,9.38
2023-01-08T19:59:09.592Z,10.68
2023-01-08T20:01:42.650Z,6.33
2023-01-08T20:04:16.176Z,9.07
2023-01-08T20:06:46.434Z,5.60
2023-01-08T20:09:16.725Z,8.02
2023-01-08T20:11:46.936Z,7.63
2023-01-08T20:14:18.711Z,9.80
2023-01-08T20:16:50.120Z,8.27
2023-01-08T20:19:22.942Z,8.65
2023-01-08T20:21:53.187Z,11.18
2023-01-08T20:24:23.406Z,37.05
2023-01-08T20:26:53.844Z,45.00
2023-01-08T20:29:24.109Z,12.57
2023-01-08T20:31:57.523Z,20.45
2023-01-08T20:34:30.482Z,33.83
2023-01-08T20:37:00.786Z,11.10
2023-01-08T20:39:31.055Z,12.50
2023-01-08T20:42:04.602Z,8.40
2023-01-08T20:44:35.558Z,8.48
2023-01-08T20:47:06.167Z,8.63
2023-01-08T20:49:40.232Z,8.95
2023-01-08T20:52:10.480Z,8.85
2023-01-08T20:54:40.701Z,9.57
2023-01-08T20:57:11.049Z,9.02
2023-01-08T20:59:41.377Z,10.52
2023-01-08T21:02:13.394Z,9.68
2023-01-08T21:04:45.965Z,11.63
2023-01-08T21:07:16.213Z,10.35
2023-01-08T21:09:46.809Z,10.25
2023-01-08T21:12:17.044Z,13.23
2023-01-08T21:14:47.508Z,11.40
2023-01-08T21:17:18.785Z,9.93
2023-01-08T21:19:51.423Z,9.85
2023-01-08T21:22:21.671Z,8.95
2023-01-08T21:24:51.971Z,9.75
2023-01-08T21:27:22.177Z,8.77
2023-01-08T21:29:52.414Z,8.85
2023-01-08T21:32:22.705Z,9.90
2023-01-08T21:34:55.317Z,10.23
2023-01-08T21:37:25.584Z,10.32
2023-01-08T21:39:55.843Z,9.38
2023-01-08T21:42:38.688Z,9.68
2023-01-08T21:45:22.405Z,9.55
2023-01-08T21:47:52.649Z,9.48
2023-01-08T21:50:25.577Z,9.50
2023-01-08T21:53:08.364Z,9.48
2023-01-08T21:55:38.629Z,9.90
2023-01-08T21:58:08.933Z,8.85
2023-01-08T22:00:40.112Z,9.23
2023-01-08T22:03:10.445Z,9.27
2023-01-08T22:05:44.106Z,9.55
2023-01-08T22:08:18.566Z,9.15
2023-01-08T22:13:18.635Z,9.60
2023-01-08T22:15:49.054Z,10.07
2023-01-08T22:18:19.595Z,10.70
2023-01-08T22:20:52.364Z,11.18
2023-01-08T22:23:22.667Z,10.30
2023-01-08T22:25:53.088Z,10.95
2023-01-08T22:28:23.465Z,10.77
2023-01-08T22:30:53.801Z,10.98
2023-01-08T22:33:24.022Z,11.45
2023-01-08T22:35:57.335Z,11.77
2023-01-08T22:38:27.761Z,10.47
2023-01-08T22:40:58.195Z,11.43
2023-01-08T22:43:28.647Z,10.85
2023-01-08T22:46:02.762Z,12.00
2023-01-08T22:48:33.184Z,10.43
2023-01-08T22:51:08.025Z,11.55
2023-01-08T22:53:38.442Z,11.65
2023-01-08T22:56:12.319Z,11.82
2023-01-08T22:58:45.435Z,10.57
2023-01-08T23:01:16.612Z,12.10
2023-01-08T23:03:47.064Z,12.40
2023-01-08T23:06:21.061Z,11.60
2023-01-08T23:08:51.632Z,13.15
2023-01-08T23:11:23.610Z,11.95
2023-01-08T23:13:53.904Z,12.40
2023-01-08T23:16:26.129Z,11.93
2023-01-08T23:18:57.039Z,13.60
2023-01-08T23:21:30.111Z,12.60
2023-01-08T23:24:00.387Z,12.50
2023-01-08T23:26:32.170Z,12.65
2023-01-08T23:29:02.535Z,13.63
2023-01-08T23:31:33.151Z,12.32
2023-01-08T23:34:03.405Z,11.05
2023-01-08T23:36:36.085Z,11.27
2023-01-08T23:39:07.495Z,12.15
2023-01-08T23:41:37.974Z,12.48
2023-01-08T23:44:09.688Z,13.30
2023-01-08T23:46:40.135Z,11.20
2023-01-08T23:49:10.443Z,12.10
2023-01-08T23:51:43.295Z,11.95
2023-01-08T23:54:13.646Z,12.80
2023-01-08T23:56:44.334Z,13.05
2023-01-08T23:59:15.238Z,13.43
